sensor_id;sensor_type;location;lat;lon;timestamp;temperature;humidity
30097;DHT22;16915;51.466;3.610;2022-08-01T00:23:39;19.30;99.90
30097;DHT22;16915;51.466;3.610;2022-08-01T00:33:31;19.20;99.90
30097;DHT22;16915;51.466;3.610;2022-08-01T00:49:42;19.20;99.90
30097;DHT22;16915;51.466;3.610;2022-08-01T03:59:14;18.80;99.90
30097;DHT22;16915;51.466;3.610;2022-08-01T04:16:47;18.30;99.90
30097;DHT22;16915;51.466;3.610;2022-08-01T04:36:56;18.20;99.90
30097;DHT22;16915;51.466;3.610;2022-08-01T04:43:08;18.40;99.90
30097;DHT22;16915;51.466;3.610;2022-08-01T04:46:13;18.50;99.90
30097;DHT22;16915;51.466;3.610;2022-08-01T04:48:55;18.60;99.90
30097;DHT22;16915;51.466;3.610;2022-08-01T04:52:02;18.70;99.90
30097;DHT22;16915;51.466;3.610;2022-08-01T04:54:35;18.80;99.90
30097;DHT22;16915;51.466;3.610;2022-08-01T05:01:05;18.90;99.90
30097;DHT22;16915;51.466;3.610;2022-08-01T05:07:46;18.90;99.90
30097;DHT22;16915;51.466;3.610;2022-08-01T05:10:18;18.90;99.90
30097;DHT22;16915;51.466;3.610;2022-08-01T05:12:57;18.90;99.90
30097;DHT22;16915;51.466;3.610;2022-08-01T05:28:49;19.20;99.90
30097;DHT22;16915;51.466;3.610;2022-08-01T05:35:20;19.30;99.90
30097;DHT22;16915;51.466;3.610;2022-08-01T05:38:33;19.40;99.90
30097;DHT22;16915;51.466;3.610;2022-08-01T05:56:11;20.00;99.90
30097;DHT22;16915;51.466;3.610;2022-08-01T06:02:39;20.20;99.90
30097;DHT22;16915;51.466;3.610;2022-08-01T06:08:57;20.50;99.90
30097;DHT22;16915;51.466;3.610;2022-08-01T06:18:27;21.20;99.90
30097;DHT22;16915;51.466;3.610;2022-08-01T06:21:22;21.20;99.90
30097;DHT22;16915;51.466;3.610;2022-08-01T06:24:19;21.30;99.90
30097;DHT22;16915;51.466;3.610;2022-08-01T06:27:39;21.20;99.90
30097;DHT22;16915;51.466;3.610;2022-08-01T06:30:25;21.10;99.90
30097;DHT22;16915;51.466;3.610;2022-08-01T06:33:25;21.00;99.90
30097;DHT22;16915;51.466;3.610;2022-08-01T06:39:41;21.10;99.90
30097;DHT22;16915;51.466;3.610;2022-08-01T06:42:34;21.30;99.90
30097;DHT22;16915;51.466;3.610;2022-08-01T06:45:39;21.60;99.90
30097;DHT22;16915;51.466;3.610;2022-08-01T06:48:18;21.50;99.90
30097;DHT22;16915;51.466;3.610;2022-08-01T06:50:53;21.50;99.90
30097;DHT22;16915;51.466;3.610;2022-08-01T06:56:35;21.50;99.90
30097;DHT22;16915;51.466;3.610;2022-08-01T06:59:03;21.40;99.90
30097;DHT22;16915;51.466;3.610;2022-08-01T07:01:29;21.30;99.90
30097;DHT22;16915;51.466;3.610;2022-08-01T07:03:56;21.20;99.90
30097;DHT22;16915;51.466;3.610;2022-08-01T07:06:26;21.20;99.90
30097;DHT22;16915;51.466;3.610;2022-08-01T07:08:54;21.10;99.90
30097;DHT22;16915;51.466;3.610;2022-08-01T07:11:23;21.00;99.90
30097;DHT22;16915;51.466;3.610;2022-08-01T07:13:51;21.00;99.90
30097;DHT22;16915;51.466;3.610;2022-08-01T07:16:23;20.90;99.90
30097;DHT22;16915;51.466;3.610;2022-08-01T07:18:53;20.90;99.90
30097;DHT22;16915;51.466;3.610;2022-08-01T07:21:36;20.80;99.90
30097;DHT22;16915;51.466;3.610;2022-08-01T07:24:12;20.80;99.90
30097;DHT22;16915;51.466;3.610;2022-08-01T07:26:51;20.80;99.90
30097;DHT22;16915;51.466;3.610;2022-08-01T07:29:24;21.00;99.90
30097;DHT22;16915;51.466;3.610;2022-08-01T07:31:51;21.10;99.90
30097;DHT22;16915;51.466;3.610;2022-08-01T07:34:31;21.30;99.90
30097;DHT22;16915;51.466;3.610;2022-08-01T07:37:03;21.60;99.90
30097;DHT22;16915;51.466;3.610;2022-08-01T07:39:29;21.90;99.90
30097;DHT22;16915;51.466;3.610;2022-08-01T07:42:21;22.30;99.90
30097;DHT22;16915;51.466;3.610;2022-08-01T07:44:50;22.50;99.90
30097;DHT22;16915;51.466;3.610;2022-08-01T07:47:25;22.40;99.90
30097;DHT22;16915;51.466;3.610;2022-08-01T07:50:04;22.30;99.90
30097;DHT22;16915;51.466;3.610;2022-08-01T07:52:33;22.10;99.90
30097;DHT22;16915;51.466;3.610;2022-08-01T07:55:02;22.00;99.90
30097;DHT22;16915;51.466;3.610;2022-08-01T08:00:45;22.30;99.90
30097;DHT22;16915;51.466;3.610;2022-08-01T08:03:18;22.20;99.90
30097;DHT22;16915;51.466;3.610;2022-08-01T08:05:47;22.20;99.90
30097;DHT22;16915;51.466;3.610;2022-08-01T08:11:32;22.30;99.90
30097;DHT22;16915;51.466;3.610;2022-08-01T08:14:19;22.50;99.90
30097;DHT22;16915;51.466;3.610;2022-08-01T08:19:56;23.00;99.90
30097;DHT22;16915;51.466;3.610;2022-08-01T08:22:28;23.20;99.90
30097;DHT22;16915;51.466;3.610;2022-08-01T08:25:09;23.40;99.90
30097;DHT22;16915;51.466;3.610;2022-08-01T08:27:35;23.60;99.90
30097;DHT22;16915;51.466;3.610;2022-08-01T08:30:25;23.70;99.90
30097;DHT22;16915;51.466;3.610;2022-08-01T08:33:05;23.80;99.90
30097;DHT22;16915;51.466;3.610;2022-08-01T08:35:43;24.00;99.90
30097;DHT22;16915;51.466;3.610;2022-08-01T08:38:09;23.90;99.90
30097;DHT22;16915;51.466;3.610;2022-08-01T08:40:45;23.70;99.90
30097;DHT22;16915;51.466;3.610;2022-08-01T08:43:25;23.60;99.90
30097;DHT22;16915;51.466;3.610;2022-08-01T08:45:52;23.40;99.90
30097;DHT22;16915;51.466;3.610;2022-08-01T08:48:23;23.40;99.90
30097;DHT22;16915;51.466;3.610;2022-08-01T08:50:54;23.40;99.90
30097;DHT22;16915;51.466;3.610;2022-08-01T08:53:26;23.50;99.90
30097;DHT22;16915;51.466;3.610;2022-08-01T08:56:15;23.70;99.90
30097;DHT22;16915;51.466;3.610;2022-08-01T08:58:42;23.90;99.90
30097;DHT22;16915;51.466;3.610;2022-08-01T09:01:09;24.10;99.90
30097;DHT22;16915;51.466;3.610;2022-08-01T09:03:36;24.20;99.90
30097;DHT22;16915;51.466;3.610;2022-08-01T09:06:05;24.20;99.90
30097;DHT22;16915;51.466;3.610;2022-08-01T09:08:35;24.10;99.90
30097;DHT22;16915;51.466;3.610;2022-08-01T09:11:03;23.90;99.90
30097;DHT22;16915;51.466;3.610;2022-08-01T09:13:29;24.00;99.90
30097;DHT22;16915;51.466;3.610;2022-08-01T09:15:57;24.10;99.90
30097;DHT22;16915;51.466;3.610;2022-08-01T09:18:39;24.40;99.90
30097;DHT22;16915;51.466;3.610;2022-08-01T09:21:21;24.60;99.90
30097;DHT22;16915;51.466;3.610;2022-08-01T09:23:57;24.70;99.90
30097;DHT22;16915;51.466;3.610;2022-08-01T09:26:35;24.60;99.90
30097;DHT22;16915;51.466;3.610;2022-08-01T09:29:18;24.70;99.90
30097;DHT22;16915;51.466;3.610;2022-08-01T09:31:53;24.80;99.90
30097;DHT22;16915;51.466;3.610;2022-08-01T09:34:28;25.00;99.90
30097;DHT22;16915;51.466;3.610;2022-08-01T09:36:56;24.90;99.90
30097;DHT22;16915;51.466;3.610;2022-08-01T09:49:31;25.40;99.90
30097;DHT22;16915;51.466;3.610;2022-08-01T09:52:21;25.50;99.90
30097;DHT22;16915;51.466;3.610;2022-08-01T09:55:22;25.70;99.90
30097;DHT22;16915;51.466;3.610;2022-08-01T09:58:02;25.90;99.90
30097;DHT22;16915;51.466;3.610;2022-08-01T10:01:03;26.00;99.90
30097;DHT22;16915;51.466;3.610;2022-08-01T10:03:36;26.10;99.90
30097;DHT22;16915;51.466;3.610;2022-08-01T10:06:24;26.20;99.90
30097;DHT22;16915;51.466;3.610;2022-08-01T10:08:56;26.30;99.90
30097;DHT22;16915;51.466;3.610;2022-08-01T10:11:25;26.40;99.90
30097;DHT22;16915;51.466;3.610;2022-08-01T10:13:54;26.60;99.90
30097;DHT22;16915;51.466;3.610;2022-08-01T10:16:38;26.70;99.90
30097;DHT22;16915;51.466;3.610;2022-08-01T10:19:07;26.60;99.90
30097;DHT22;16915;51.466;3.610;2022-08-01T10:21:33;26.70;99.90
30097;DHT22;16915;51.466;3.610;2022-08-01T10:24:05;26.70;99.90
30097;DHT22;16915;51.466;3.610;2022-08-01T10:26:33;26.80;99.90
30097;DHT22;16915;51.466;3.610;2022-08-01T10:29:11;27.10;99.90
30097;DHT22;16915;51.466;3.610;2022-08-01T10:31:51;27.20;99.90
30097;DHT22;16915;51.466;3.610;2022-08-01T10:34:20;27.30;99.90
30097;DHT22;16915;51.466;3.610;2022-08-01T10:36:50;27.40;99.90
30097;DHT22;16915;51.466;3.610;2022-08-01T10:39:18;27.40;99.90
30097;DHT22;16915;51.466;3.610;2022-08-01T10:42:13;27.30;99.80
30097;DHT22;16915;51.466;3.610;2022-08-01T10:44:40;27.20;99.50
30097;DHT22;16915;51.466;3.610;2022-08-01T10:47:12;27.20;99.50
30097;DHT22;16915;51.466;3.610;2022-08-01T10:50:04;27.20;99.90
30097;DHT22;16915;51.466;3.610;2022-08-01T10:52:42;27.40;99.90
30097;DHT22;16915;51.466;3.610;2022-08-01T10:55:27;27.70;99.90
30097;DHT22;16915;51.466;3.610;2022-08-01T10:57:55;28.00;99.20
30097;DHT22;16915;51.466;3.610;2022-08-01T11:03:34;28.30;98.80
30097;DHT22;16915;51.466;3.610;2022-08-01T11:06:03;28.60;99.10
30097;DHT22;16915;51.466;3.610;2022-08-01T11:08:35;28.70;98.20
30097;DHT22;16915;51.466;3.610;2022-08-01T11:14:18;29.00;98.60
30097;DHT22;16915;51.466;3.610;2022-08-01T11:16:44;29.40;97.60
30097;DHT22;16915;51.466;3.610;2022-08-01T11:19:30;29.70;96.90
30097;DHT22;16915;51.466;3.610;2022-08-01T11:22:26;29.70;96.60
30097;DHT22;16915;51.466;3.610;2022-08-01T11:24:55;29.60;96.20
30097;DHT22;16915;51.466;3.610;2022-08-01T11:27:32;29.60;96.60
30097;DHT22;16915;51.466;3.610;2022-08-01T11:33:15;28.90;96.10
30097;DHT22;16915;51.466;3.610;2022-08-01T11:36:19;28.90;95.20
30097;DHT22;16915;51.466;3.610;2022-08-01T11:41:31;29.00;95.60
30097;DHT22;16915;51.466;3.610;2022-08-01T11:45:05;29.40;95.00
30097;DHT22;16915;51.466;3.610;2022-08-01T11:54:24;31.80;92.60
30097;DHT22;16915;51.466;3.610;2022-08-01T12:00:18;32.00;91.60
30097;DHT22;16915;51.466;3.610;2022-08-01T12:02:45;32.40;90.80
30097;DHT22;16915;51.466;3.610;2022-08-01T12:05:13;32.30;89.40
30097;DHT22;16915;51.466;3.610;2022-08-01T12:07:41;31.90;90.90
30097;DHT22;16915;51.466;3.610;2022-08-01T12:10:19;32.00;90.80
30097;DHT22;16915;51.466;3.610;2022-08-01T12:12:47;32.20;89.80
30097;DHT22;16915;51.466;3.610;2022-08-01T12:15:17;32.70;90.70
30097;DHT22;16915;51.466;3.610;2022-08-01T12:17:46;32.90;90.10
30097;DHT22;16915;51.466;3.610;2022-08-01T12:20:19;32.30;88.30
30097;DHT22;16915;51.466;3.610;2022-08-01T12:22:45;31.90;90.60
30097;DHT22;16915;51.466;3.610;2022-08-01T12:25:14;32.10;89.90
30097;DHT22;16915;51.466;3.610;2022-08-01T12:31:12;32.40;85.60
30097;DHT22;16915;51.466;3.610;2022-08-01T12:33:37;32.60;84.70
30097;DHT22;16915;51.466;3.610;2022-08-01T12:36:03;33.10;85.20
30097;DHT22;16915;51.466;3.610;2022-08-01T12:38:43;33.90;80.60
30097;DHT22;16915;51.466;3.610;2022-08-01T12:41:10;34.30;79.80
30097;DHT22;16915;51.466;3.610;2022-08-01T12:43:36;35.20;79.00
30097;DHT22;16915;51.466;3.610;2022-08-01T12:46:02;35.70;78.70
30097;DHT22;16915;51.466;3.610;2022-08-01T12:48:30;36.30;77.10
30097;DHT22;16915;51.466;3.610;2022-08-01T12:50:58;36.40;76.40
30097;DHT22;16915;51.466;3.610;2022-08-01T12:53:26;36.60;76.50
30097;DHT22;16915;51.466;3.610;2022-08-01T12:55:54;37.00;74.30
30097;DHT22;16915;51.466;3.610;2022-08-01T13:01:48;35.60;73.30
30097;DHT22;16915;51.466;3.610;2022-08-01T13:04:17;34.10;73.00
30097;DHT22;16915;51.466;3.610;2022-08-01T13:06:43;33.30;75.80
30097;DHT22;16915;51.466;3.610;2022-08-01T13:09:09;33.30;76.50
30097;DHT22;16915;51.466;3.610;2022-08-01T13:11:44;33.50;76.30
30097;DHT22;16915;51.466;3.610;2022-08-01T13:14:26;33.90;76.60
30097;DHT22;16915;51.466;3.610;2022-08-01T13:17:00;34.70;75.50
30097;DHT22;16915;51.466;3.610;2022-08-01T13:19:55;35.80;76.20
30097;DHT22;16915;51.466;3.610;2022-08-01T13:22:34;36.20;72.30
30097;DHT22;16915;51.466;3.610;2022-08-01T13:25:14;37.30;69.70
30097;DHT22;16915;51.466;3.610;2022-08-01T13:27:41;37.80;71.10
30097;DHT22;16915;51.466;3.610;2022-08-01T13:30:25;37.60;70.60
30097;DHT22;16915;51.466;3.610;2022-08-01T13:33:00;37.10;69.90
30097;DHT22;16915;51.466;3.610;2022-08-01T13:35:27;36.20;71.40
30097;DHT22;16915;51.466;3.610;2022-08-01T13:38:01;35.10;71.70
30097;DHT22;16915;51.466;3.610;2022-08-01T13:40:27;34.10;72.80
30097;DHT22;16915;51.466;3.610;2022-08-01T13:42:56;33.10;74.90
30097;DHT22;16915;51.466;3.610;2022-08-01T13:45:24;32.60;75.60
30097;DHT22;16915;51.466;3.610;2022-08-01T13:47:50;32.60;74.30
30097;DHT22;16915;51.466;3.610;2022-08-01T13:50:21;32.70;74.70
30097;DHT22;16915;51.466;3.610;2022-08-01T13:52:52;33.20;74.70
30097;DHT22;16915;51.466;3.610;2022-08-01T13:55:20;33.30;75.30
30097;DHT22;16915;51.466;3.610;2022-08-01T13:57:49;33.70;73.40
30097;DHT22;16915;51.466;3.610;2022-08-01T14:00:15;34.00;73.70
30097;DHT22;16915;51.466;3.610;2022-08-01T14:02:41;34.80;73.00
30097;DHT22;16915;51.466;3.610;2022-08-01T14:05:09;35.70;72.30
30097;DHT22;16915;51.466;3.610;2022-08-01T14:07:35;35.10;70.00
30097;DHT22;16915;51.466;3.610;2022-08-01T14:10:01;35.20;72.50
30097;DHT22;16915;51.466;3.610;2022-08-01T14:12:32;35.60;72.30
30097;DHT22;16915;51.466;3.610;2022-08-01T14:14:58;37.10;68.70
30097;DHT22;16915;51.466;3.610;2022-08-01T14:17:24;38.30;66.80
30097;DHT22;16915;51.466;3.610;2022-08-01T14:19:50;38.70;65.10
30097;DHT22;16915;51.466;3.610;2022-08-01T14:22:28;38.90;65.20
30097;DHT22;16915;51.466;3.610;2022-08-01T14:25:10;38.70;63.50
30097;DHT22;16915;51.466;3.610;2022-08-01T14:27:38;39.30;64.00
30097;DHT22;16915;51.466;3.610;2022-08-01T14:30:26;39.60;62.50
30097;DHT22;16915;51.466;3.610;2022-08-01T14:33:00;38.50;62.30
30097;DHT22;16915;51.466;3.610;2022-08-01T14:35:26;38.30;64.60
30097;DHT22;16915;51.466;3.610;2022-08-01T14:37:52;38.70;62.40
30097;DHT22;16915;51.466;3.610;2022-08-01T14:40:35;38.80;62.00
30097;DHT22;16915;51.466;3.610;2022-08-01T14:43:36;39.10;58.40
30097;DHT22;16915;51.466;3.610;2022-08-01T14:46:30;39.00;59.70
30097;DHT22;16915;51.466;3.610;2022-08-01T14:49:06;39.50;58.80
30097;DHT22;16915;51.466;3.610;2022-08-01T14:51:45;40.10;58.20
30097;DHT22;16915;51.466;3.610;2022-08-01T14:54:17;40.60;57.40
30097;DHT22;16915;51.466;3.610;2022-08-01T14:56:48;40.90;57.60
30097;DHT22;16915;51.466;3.610;2022-08-01T14:59:26;40.60;57.00
30097;DHT22;16915;51.466;3.610;2022-08-01T15:01:51;40.90;56.30
30097;DHT22;16915;51.466;3.610;2022-08-01T15:07:10;40.10;58.10
30097;DHT22;16915;51.466;3.610;2022-08-01T15:13:21;40.30;56.40
30097;DHT22;16915;51.466;3.610;2022-08-01T15:15:53;40.10;58.10
30097;DHT22;16915;51.466;3.610;2022-08-01T15:18:18;40.00;57.40
30097;DHT22;16915;51.466;3.610;2022-08-01T15:23:57;39.00;57.30
30097;DHT22;16915;51.466;3.610;2022-08-01T15:26:22;39.00;56.40
30097;DHT22;16915;51.466;3.610;2022-08-01T15:28:48;39.00;56.00
30097;DHT22;16915;51.466;3.610;2022-08-01T15:31:14;38.10;57.00
30097;DHT22;16915;51.466;3.610;2022-08-01T15:33:39;38.20;59.30
30097;DHT22;16915;51.466;3.610;2022-08-01T15:36:07;38.50;58.40
30097;DHT22;16915;51.466;3.610;2022-08-01T15:44:46;38.70;56.60
30097;DHT22;16915;51.466;3.610;2022-08-01T15:47:34;38.10;57.20
30097;DHT22;16915;51.466;3.610;2022-08-01T15:50:06;38.40;58.50
30097;DHT22;16915;51.466;3.610;2022-08-01T15:52:32;38.70;56.70
30097;DHT22;16915;51.466;3.610;2022-08-01T15:54:57;39.10;56.40
30097;DHT22;16915;51.466;3.610;2022-08-01T15:57:23;39.70;56.50
30097;DHT22;16915;51.466;3.610;2022-08-01T15:59:52;39.70;55.20
30097;DHT22;16915;51.466;3.610;2022-08-01T16:02:36;39.70;56.20
30097;DHT22;16915;51.466;3.610;2022-08-01T16:05:27;39.60;55.80
30097;DHT22;16915;51.466;3.610;2022-08-01T16:08:09;39.70;55.40
30097;DHT22;16915;51.466;3.610;2022-08-01T17:30:32;26.00;73.00
30097;DHT22;16915;51.466;3.610;2022-08-01T18:59:15;23.00;82.70
30097;DHT22;16915;51.466;3.610;2022-08-01T19:01:40;22.80;83.40
30097;DHT22;16915;51.466;3.610;2022-08-01T19:04:06;22.60;83.80
30097;DHT22;16915;51.466;3.610;2022-08-01T19:06:35;22.50;84.50
30097;DHT22;16915;51.466;3.610;2022-08-01T19:09:06;22.30;84.90
30097;DHT22;16915;51.466;3.610;2022-08-01T19:11:33;22.20;85.10
30097;DHT22;16915;51.466;3.610;2022-08-01T19:14:02;22.10;86.00
30097;DHT22;16915;51.466;3.610;2022-08-01T19:16:28;22.00;85.60
30097;DHT22;16915;51.466;3.610;2022-08-01T19:18:54;21.90;85.80
30097;DHT22;16915;51.466;3.610;2022-08-01T19:21:21;21.80;86.20
30097;DHT22;16915;51.466;3.610;2022-08-01T19:23:47;21.70;86.70
30097;DHT22;16915;51.466;3.610;2022-08-01T19:26:33;21.70;87.10
30097;DHT22;16915;51.466;3.610;2022-08-01T19:29:08;21.60;87.60
30097;DHT22;16915;51.466;3.610;2022-08-01T19:31:39;21.50;87.90
30097;DHT22;16915;51.466;3.610;2022-08-01T19:34:05;21.50;88.50
30097;DHT22;16915;51.466;3.610;2022-08-01T19:36:36;21.40;89.30
30097;DHT22;16915;51.466;3.610;2022-08-01T19:39:03;21.30;90.00
30097;DHT22;16915;51.466;3.610;2022-08-01T19:41:29;21.20;90.30
30097;DHT22;16915;51.466;3.610;2022-08-01T19:43:57;21.10;90.60
30097;DHT22;16915;51.466;3.610;2022-08-01T19:56:40;20.90;92.10
30097;DHT22;16915;51.466;3.610;2022-08-01T19:59:19;20.90;92.70
30097;DHT22;16915;51.466;3.610;2022-08-01T20:01:48;20.80;93.20
30097;DHT22;16915;51.466;3.610;2022-08-01T20:04:17;20.70;93.60
30097;DHT22;16915;51.466;3.610;2022-08-01T20:06:46;20.60;94.10
30097;DHT22;16915;51.466;3.610;2022-08-01T20:09:13;20.50;94.50
30097;DHT22;16915;51.466;3.610;2022-08-01T20:11:53;20.50;95.00
30097;DHT22;16915;51.466;3.610;2022-08-01T20:14:25;20.40;95.00
30097;DHT22;16915;51.466;3.610;2022-08-01T20:17:48;20.40;95.10
30097;DHT22;16915;51.466;3.610;2022-08-01T20:23:55;20.40;95.20
30097;DHT22;16915;51.466;3.610;2022-08-01T20:26:52;20.30;95.20
30097;DHT22;16915;51.466;3.610;2022-08-01T20:43:22;20.20;96.20
30097;DHT22;16915;51.466;3.610;2022-08-01T20:49:03;20.30;96.30
30097;DHT22;16915;51.466;3.610;2022-08-01T20:51:37;20.30;96.30
30097;DHT22;16915;51.466;3.610;2022-08-01T20:54:23;20.40;96.30
30097;DHT22;16915;51.466;3.610;2022-08-01T20:56:58;20.40;96.50
30097;DHT22;16915;51.466;3.610;2022-08-01T20:59:34;20.40;96.50
30097;DHT22;16915;51.466;3.610;2022-08-01T21:05:08;20.30;96.90
30097;DHT22;16915;51.466;3.610;2022-08-01T21:07:42;20.30;97.20
30097;DHT22;16915;51.466;3.610;2022-08-01T21:10:14;20.30;97.30
30097;DHT22;16915;51.466;3.610;2022-08-01T21:12:48;20.40;97.20
30097;DHT22;16915;51.466;3.610;2022-08-01T21:15:47;20.30;97.30
30097;DHT22;16915;51.466;3.610;2022-08-01T21:18:32;20.30;97.40
30097;DHT22;16915;51.466;3.610;2022-08-01T21:21:17;20.20;97.70
30097;DHT22;16915;51.466;3.610;2022-08-01T21:24:04;20.20;98.00
30097;DHT22;16915;51.466;3.610;2022-08-01T21:26:34;20.20;98.00
30097;DHT22;16915;51.466;3.610;2022-08-01T21:29:06;20.10;98.30
30097;DHT22;16915;51.466;3.610;2022-08-01T21:31:33;20.00;98.50
30097;DHT22;16915;51.466;3.610;2022-08-01T21:40:34;20.00;99.50
30097;DHT22;16915;51.466;3.610;2022-08-01T23:51:39;20.00;99.90
